Terminal Aerodrome Forecast
Issued by NWS Binghamton, NY

Home | Current Version | Previous Version | Text Only | Print | Product List | Glossary On
Versions: 1 2 3 4 5 6 7 8 9 10 11 12 13 14 15 16 17 18 19 20 21
000
FTUS41 KBGM 202300
TAFAVP
TAF
KAVP 202320Z 2100/2124 18003KT P6SM OVC090
     FM211100 17003KT 6SM -SHRA OVC025
      TEMPO 2114/2117 4SM -SHRA BR
     FM211900 24003KT P6SM OVC035=

USA.gov is the U.S. government's official web portal to all federal, state and local government web resources and services.